createdAt,value
2023-03-08T00:02:23.791Z,7.93
2023-03-08T00:04:53.865Z,7.70
2023-03-08T00:07:20.803Z,8.27
2023-03-08T00:09:47.504Z,7.93
2023-03-08T00:12:14.288Z,7.90
2023-03-08T00:14:41.105Z,8.53
2023-03-08T00:17:07.852Z,7.97
2023-03-08T00:19:34.629Z,8.27
2023-03-08T00:22:01.433Z,9.20
2023-03-08T00:24:28.274Z,8.53
2023-03-08T00:26:55.086Z,8.77
2023-03-08T00:29:21.877Z,9.60
2023-03-08T00:31:50.051Z,8.33
2023-03-08T00:34:17.391Z,8.93
2023-03-08T00:36:44.360Z,8.47
2023-03-08T00:39:16.597Z,9.33
2023-03-08T00:41:43.566Z,9.07
2023-03-08T00:44:10.455Z,9.00
2023-03-08T00:46:38.137Z,8.87
2023-03-08T00:49:05.196Z,8.90
2023-03-08T00:51:32.049Z,8.17
2023-03-08T00:54:00.371Z,9.37
2023-03-08T00:56:27.660Z,8.93
2023-03-08T00:58:54.486Z,7.97
2023-03-08T01:01:21.329Z,9.57
2023-03-08T01:03:48.126Z,9.43
2023-03-08T01:06:16.118Z,8.93
2023-03-08T01:08:43.205Z,8.53
2023-03-08T01:11:19.218Z,8.93
2023-03-08T01:13:46.372Z,8.97
2023-03-08T01:16:22.293Z,9.13
2023-03-08T01:18:49.093Z,9.67
2023-03-08T01:21:16.059Z,9.47
2023-03-08T01:23:42.979Z,10.07
2023-03-08T01:26:14.589Z,9.17
2023-03-08T01:28:41.800Z,8.90
2023-03-08T01:31:24.789Z,9.33
2023-03-08T01:33:51.974Z,10.67
2023-03-08T01:36:21.433Z,9.77
2023-03-08T01:38:48.369Z,10.53
2023-03-08T01:41:25.078Z,9.63
2023-03-08T01:43:52.781Z,9.13
2023-03-08T01:46:26.837Z,9.33
2023-03-08T01:49:14.830Z,9.67
2023-03-08T01:51:47.295Z,9.60
2023-03-08T01:54:39.745Z,8.73
2023-03-08T01:57:20.204Z,10.67
2023-03-08T01:59:49.611Z,9.03
2023-03-08T02:02:22.205Z,9.77
2023-03-08T02:04:48.975Z,9.57
2023-03-08T02:07:16.109Z,9.17
2023-03-08T02:09:42.975Z,10.73
2023-03-08T02:12:13.289Z,10.20
2023-03-08T02:14:43.082Z,10.70
2023-03-08T02:17:13.480Z,10.50
2023-03-08T02:19:53.847Z,10.10
2023-03-08T02:22:21.046Z,9.43
2023-03-08T02:24:49.163Z,10.80
2023-03-08T02:27:27.082Z,10.47
2023-03-08T02:29:53.893Z,10.67
2023-03-08T02:32:20.669Z,9.23
2023-03-08T02:34:47.404Z,10.13
2023-03-08T02:37:14.179Z,10.93
2023-03-08T02:39:40.944Z,12.13
2023-03-08T02:42:07.989Z,10.97
2023-03-08T02:44:34.725Z,12.37
2023-03-08T02:47:01.533Z,14.20
2023-03-08T02:49:28.272Z,14.93
2023-03-08T02:51:54.983Z,15.03
2023-03-08T02:54:21.723Z,13.57
2023-03-08T02:56:48.435Z,13.47
2023-03-08T02:59:15.301Z,14.07
2023-03-08T03:01:42.124Z,14.70
2023-03-08T03:04:08.967Z,14.47
2023-03-08T03:06:35.791Z,14.63
2023-03-08T03:09:07.205Z,16.77
2023-03-08T03:11:33.971Z,15.13
2023-03-08T03:14:01.306Z,16.93
2023-03-08T03:16:28.934Z,16.13
2023-03-08T03:18:56.507Z,17.30
2023-03-08T03:21:24.672Z,16.47
2023-03-08T03:23:51.489Z,16.87
2023-03-08T03:26:23.394Z,16.17
2023-03-08T03:28:52.241Z,15.90
2023-03-08T03:31:21.705Z,15.97
2023-03-08T03:33:49.213Z,15.80
2023-03-08T03:36:18.233Z,15.47
2023-03-08T03:38:45.398Z,15.00
2023-03-08T03:41:14.764Z,14.53
2023-03-08T03:43:42.095Z,13.83
2023-03-08T03:46:13.019Z,12.57
2023-03-08T03:48:40.481Z,12.30
2023-03-08T03:51:13.152Z,12.97
2023-03-08T03:53:40.244Z,11.87
2023-03-08T03:56:14.460Z,11.00
2023-03-08T03:58:42.127Z,11.53
2023-03-08T04:01:15.014Z,11.00
2023-03-08T04:03:41.914Z,10.37
2023-03-08T04:06:10.100Z,10.43
2023-03-08T04:08:42.676Z,10.77
2023-03-08T04:11:21.131Z,9.93
2023-03-08T04:13:48.238Z,9.70
2023-03-08T04:16:18.133Z,8.80
2023-03-08T04:18:46.634Z,8.43
2023-03-08T04:21:14.572Z,8.57
2023-03-08T04:23:41.713Z,8.10
2023-03-08T04:26:11.144Z,7.50
2023-03-08T04:28:37.893Z,8.93
2023-03-08T04:31:17.824Z,6.63
2023-03-08T04:33:45.520Z,7.20
2023-03-08T04:36:15.854Z,7.73
2023-03-08T04:38:43.084Z,6.73
2023-03-08T04:41:13.033Z,7.50
2023-03-08T04:43:51.226Z,7.80
2023-03-08T04:46:20.005Z,6.97
2023-03-08T04:48:47.172Z,7.00
2023-03-08T04:51:16.041Z,7.30
2023-03-08T04:53:44.771Z,7.27
2023-03-08T04:56:13.628Z,6.00
2023-03-08T04:58:40.845Z,6.30
2023-03-08T05:01:13.486Z,6.80
2023-03-08T05:03:40.687Z,5.80
2023-03-08T05:06:08.049Z,6.50
2023-03-08T05:08:35.311Z,6.60
2023-03-08T05:11:04.778Z,6.40
2023-03-08T05:13:35.710Z,6.10
2023-03-08T05:16:04.393Z,6.87
2023-03-08T05:18:31.217Z,6.57
2023-03-08T05:21:04.146Z,6.43
2023-03-08T05:23:31.423Z,6.13
2023-03-08T05:26:00.224Z,6.73
2023-03-08T05:28:29.126Z,6.37
2023-03-08T05:31:08.020Z,6.97
2023-03-08T05:33:36.229Z,7.67
2023-03-08T05:36:03.870Z,7.47
2023-03-08T05:38:30.958Z,7.67
2023-03-08T05:41:02.352Z,8.50
2023-03-08T05:43:30.454Z,9.07
2023-03-08T05:46:10.416Z,8.33
2023-03-08T05:48:37.541Z,9.37
2023-03-08T05:51:13.230Z,9.53
2023-03-08T05:53:40.529Z,9.03
2023-03-08T05:56:14.414Z,8.83
2023-03-08T05:58:43.355Z,10.73
2023-03-08T06:01:18.394Z,9.87
2023-03-08T06:03:50.145Z,10.47
2023-03-08T06:06:18.016Z,11.00
2023-03-08T06:08:45.270Z,11.20
2023-03-08T06:11:12.978Z,11.50
2023-03-08T06:13:41.221Z,11.53
2023-03-08T06:16:09.025Z,11.20
2023-03-08T06:18:37.833Z,11.53
2023-03-08T06:21:04.690Z,11.17
2023-03-08T06:23:33.079Z,10.80
2023-03-08T06:26:00.427Z,11.50
2023-03-08T06:28:30.037Z,9.97
2023-03-08T06:30:57.609Z,11.27
2023-03-08T06:33:27.375Z,9.80
2023-03-08T06:36:04.120Z,9.23
2023-03-08T06:38:33.552Z,9.27
2023-03-08T06:41:00.517Z,9.43
2023-03-08T06:43:27.971Z,8.00
2023-03-08T06:45:55.065Z,9.07
2023-03-08T06:48:22.070Z,8.27
2023-03-08T06:50:49.093Z,8.87
2023-03-08T06:53:16.027Z,8.37
2023-03-08T06:55:42.862Z,8.67
2023-03-08T06:58:09.720Z,7.33
2023-03-08T07:00:37.003Z,7.73
2023-03-08T07:03:03.955Z,7.50
2023-03-08T07:05:31.108Z,7.33
2023-03-08T07:07:57.929Z,8.17
2023-03-08T07:10:27.249Z,7.17
2023-03-08T07:12:54.023Z,7.17
2023-03-08T07:15:22.841Z,7.40
2023-03-08T07:17:51.126Z,7.97
2023-03-08T07:20:20.157Z,7.30
2023-03-08T07:22:47.106Z,7.30
2023-03-08T07:25:15.630Z,7.27
2023-03-08T07:27:42.560Z,7.03
2023-03-08T07:30:11.052Z,7.03
2023-03-08T07:32:40.981Z,7.97
2023-03-08T07:35:09.469Z,7.43
2023-03-08T07:37:36.841Z,7.23
2023-03-08T07:40:04.875Z,7.13
2023-03-08T07:42:32.020Z,8.23
2023-03-08T07:44:58.863Z,8.17
2023-03-08T07:47:25.622Z,8.83
2023-03-08T07:49:52.471Z,9.23
2023-03-08T07:52:20.012Z,10.20
2023-03-08T07:54:48.199Z,10.83
2023-03-08T07:57:15.532Z,9.30
2023-03-08T07:59:42.705Z,8.07
2023-03-08T08:02:13.452Z,6.93
2023-03-08T08:04:40.919Z,9.07
2023-03-08T08:07:13.139Z,7.83
2023-03-08T08:09:40.100Z,6.43
2023-03-08T08:12:07.203Z,6.87
2023-03-08T08:14:35.017Z,6.30
2023-03-08T08:17:02.010Z,6.30
2023-03-08T08:19:29.657Z,5.77
2023-03-08T08:21:56.433Z,6.57
2023-03-08T08:24:23.290Z,6.63
2023-03-08T08:26:50.141Z,6.90
2023-03-08T08:29:16.927Z,7.63
2023-03-08T08:31:43.770Z,7.13
2023-03-08T08:34:10.903Z,6.70
2023-03-08T08:36:37.982Z,8.07
2023-03-08T08:39:04.985Z,7.80
2023-03-08T08:41:32.379Z,8.43
2023-03-08T08:44:00.168Z,8.17
2023-03-08T08:46:28.087Z,7.57
2023-03-08T08:48:55.795Z,8.47
2023-03-08T08:51:22.649Z,7.03
2023-03-08T08:53:49.854Z,7.03
2023-03-08T08:56:26.785Z,6.93
2023-03-08T08:58:56.361Z,7.13
2023-03-08T09:01:28.210Z,6.43
2023-03-08T09:03:55.353Z,7.03
2023-03-08T09:06:24.091Z,6.00
2023-03-08T09:08:56.369Z,6.33
2023-03-08T09:11:24.590Z,6.53
2023-03-08T09:13:52.064Z,6.53
2023-03-08T09:16:24.526Z,6.10
2023-03-08T09:18:52.329Z,5.53
2023-03-08T09:21:19.898Z,5.50
2023-03-08T09:23:47.205Z,5.43
2023-03-08T09:26:14.407Z,5.50
2023-03-08T09:28:41.328Z,5.87
2023-03-08T09:31:12.876Z,5.07
2023-03-08T09:33:45.194Z,5.13
2023-03-08T09:36:12.489Z,5.50
2023-03-08T09:38:40.687Z,5.10
2023-03-08T09:41:27.187Z,4.87
2023-03-08T09:44:28.437Z,5.27
2023-03-08T09:47:06.051Z,3.97
2023-03-08T09:49:35.185Z,4.27
2023-03-08T09:52:25.236Z,4.00
2023-03-08T09:55:06.921Z,3.90
2023-03-08T09:57:41.532Z,4.00
2023-03-08T10:00:20.873Z,4.17
2023-03-08T10:03:17.922Z,4.17
2023-03-08T10:06:07.483Z,4.10
2023-03-08T10:08:45.587Z,3.77
2023-03-08T10:11:37.288Z,5.23
2023-03-08T10:14:32.096Z,3.63
2023-03-08T10:17:13.044Z,3.93
2023-03-08T10:19:54.487Z,3.50
2023-03-08T10:22:38.060Z,3.03
2023-03-08T10:25:23.408Z,3.80
2023-03-08T10:27:54.504Z,3.50
2023-03-08T10:30:26.572Z,3.47
2023-03-08T10:32:59.188Z,3.53
2023-03-08T10:35:38.415Z,3.60
2023-03-08T10:38:15.996Z,3.23
2023-03-08T10:40:42.874Z,3.53
2023-03-08T10:43:26.703Z,3.90
2023-03-08T10:46:06.358Z,4.13
2023-03-08T10:48:33.346Z,4.17
2023-03-08T10:51:02.652Z,3.83
2023-03-08T10:53:30.245Z,4.17
2023-03-08T10:55:59.151Z,4.57
2023-03-08T10:58:42.442Z,3.93
2023-03-08T11:01:34.449Z,4.03
2023-03-08T11:04:06.628Z,4.63
2023-03-08T11:06:37.546Z,4.13
2023-03-08T11:09:19.196Z,4.83
2023-03-08T11:11:45.989Z,4.90
2023-03-08T11:14:13.524Z,4.53
2023-03-08T11:16:50.157Z,4.50
2023-03-08T11:19:43.635Z,4.60
2023-03-08T11:22:31.799Z,4.60
2023-03-08T11:25:22.537Z,4.50
2023-03-08T11:27:59.126Z,4.07
2023-03-08T11:31:04.829Z,4.27
2023-03-08T11:34:01.759Z,5.43
2023-03-08T11:36:31.530Z,4.10
2023-03-08T11:39:22.843Z,4.63
2023-03-08T11:42:04.778Z,4.30
2023-03-08T11:44:57.833Z,4.43
2023-03-08T11:47:39.536Z,5.27
2023-03-08T11:50:30.682Z,5.53
2023-03-08T11:53:30.748Z,6.37
2023-03-08T11:56:21.468Z,5.73
2023-03-08T11:59:22.586Z,5.33
2023-03-08T12:02:13.117Z,4.90
2023-03-08T12:04:43.838Z,5.17
2023-03-08T12:07:35.262Z,5.20
2023-03-08T12:10:28.192Z,5.10
2023-03-08T12:13:00.360Z,5.50
2023-03-08T12:15:37.663Z,5.00
2023-03-08T12:18:24.813Z,5.07
2023-03-08T12:21:02.050Z,5.00
2023-03-08T12:23:36.514Z,4.93
2023-03-08T12:26:48.656Z,5.23
2023-03-08T12:29:23.570Z,4.73
2023-03-08T12:31:51.894Z,4.00
2023-03-08T12:34:41.113Z,3.40
2023-03-08T12:37:24.787Z,2.90
2023-03-08T12:40:27.692Z,3.30
2023-03-08T12:43:11.291Z,2.70
2023-03-08T12:45:40.131Z,3.40
2023-03-08T12:48:17.986Z,2.73
2023-03-08T12:51:00.322Z,2.70
2023-03-08T12:53:33.087Z,2.70
2023-03-08T12:56:03.274Z,1.97
2023-03-08T12:58:32.058Z,2.17
2023-03-08T13:01:02.090Z,2.67
2023-03-08T13:03:41.428Z,2.40
2023-03-08T13:06:52.609Z,2.40
2023-03-08T13:09:24.852Z,2.40
2023-03-08T13:12:01.868Z,2.50
2023-03-08T13:14:40.831Z,2.27
2023-03-08T13:17:28.754Z,2.63
2023-03-08T13:20:12.705Z,2.70
2023-03-08T13:22:59.878Z,2.33
2023-03-08T13:25:58.250Z,2.90
2023-03-08T13:28:41.044Z,2.27
2023-03-08T13:31:22.322Z,2.53
2023-03-08T13:33:54.235Z,2.70
2023-03-08T13:36:22.388Z,3.13
2023-03-08T13:39:19.620Z,2.93
2023-03-08T13:41:48.172Z,2.70
2023-03-08T13:44:28.231Z,2.80
2023-03-08T13:46:58.344Z,2.60
2023-03-08T13:49:26.765Z,2.57
2023-03-08T13:51:57.274Z,2.63
2023-03-08T13:54:30.008Z,2.97
2023-03-08T13:56:58.170Z,4.80
2023-03-08T13:59:25.080Z,3.73
2023-03-08T14:01:53.394Z,3.77
2023-03-08T14:04:26.128Z,3.73
2023-03-08T14:06:58.897Z,3.03
2023-03-08T14:09:27.467Z,2.90
2023-03-08T14:12:02.187Z,3.23
2023-03-08T14:14:40.692Z,3.10
2023-03-08T14:17:15.477Z,3.47
2023-03-08T14:19:42.443Z,3.47
2023-03-08T14:22:21.184Z,3.47
2023-03-08T14:24:57.466Z,3.30
2023-03-08T14:27:38.597Z,3.80
2023-03-08T14:30:22.639Z,3.90
2023-03-08T14:33:08.760Z,2.87
2023-03-08T14:35:43.386Z,3.20
2023-03-08T14:38:21.278Z,3.27
2023-03-08T14:40:50.470Z,3.40
2023-03-08T14:43:20.295Z,3.47
2023-03-08T14:46:06.528Z,3.30
2023-03-08T14:48:38.906Z,3.10
2023-03-08T14:51:18.961Z,3.03
2023-03-08T14:53:58.507Z,3.20
2023-03-08T14:56:25.432Z,3.13
2023-03-08T14:58:54.461Z,3.57
2023-03-08T15:01:32.455Z,3.53
2023-03-08T15:03:59.405Z,3.40
2023-03-08T15:06:30.207Z,3.70
2023-03-08T15:08:58.407Z,3.50
2023-03-08T15:11:26.338Z,3.50
2023-03-08T15:13:55.289Z,3.70
2023-03-08T15:16:22.066Z,4.10
2023-03-08T15:18:48.811Z,3.63
2023-03-08T15:21:20.845Z,3.17
2023-03-08T15:23:49.144Z,3.20
2023-03-08T15:26:31.558Z,3.50
2023-03-08T15:28:59.170Z,2.70
2023-03-08T15:31:26.158Z,3.27
2023-03-08T15:33:52.915Z,2.83
2023-03-08T15:36:19.903Z,2.70
2023-03-08T15:38:46.848Z,3.00
2023-03-08T15:41:15.447Z,3.00
2023-03-08T15:43:42.779Z,2.83
2023-03-08T15:46:14.138Z,3.40
2023-03-08T15:48:41.487Z,2.90
2023-03-08T15:51:35.760Z,3.27
2023-03-08T15:54:04.451Z,3.70
2023-03-08T15:56:31.449Z,3.37
2023-03-08T15:58:58.404Z,3.40
2023-03-08T16:01:26.849Z,3.37
2023-03-08T16:03:55.691Z,3.03
2023-03-08T16:06:24.538Z,3.00
2023-03-08T16:08:52.018Z,3.50
2023-03-08T16:11:22.638Z,4.13
2023-03-08T16:13:51.683Z,3.63
2023-03-08T16:16:42.194Z,4.00
2023-03-08T16:19:11.946Z,4.23
2023-03-08T16:21:42.365Z,4.50
2023-03-08T16:24:10.486Z,3.77
2023-03-08T16:26:37.879Z,4.70
2023-03-08T16:29:04.659Z,4.90
2023-03-08T16:31:33.696Z,5.30
2023-03-08T16:34:05.299Z,5.60
2023-03-08T16:36:35.466Z,5.17
2023-03-08T16:39:02.518Z,5.50
2023-03-08T16:41:30.175Z,4.53
2023-03-08T16:43:58.109Z,5.77
2023-03-08T16:46:26.269Z,4.50
2023-03-08T16:48:55.976Z,5.50
2023-03-08T16:51:28.049Z,4.47
2023-03-08T16:53:55.430Z,5.13
2023-03-08T16:56:27.800Z,5.07
2023-03-08T16:59:00.281Z,5.87
2023-03-08T17:01:29.258Z,5.50
2023-03-08T17:03:57.827Z,5.63
2023-03-08T17:06:27.373Z,5.63
2023-03-08T17:08:54.460Z,6.80
2023-03-08T17:11:23.776Z,7.13
2023-03-08T17:14:00.991Z,6.67
2023-03-08T17:16:30.256Z,6.80
2023-03-08T17:18:59.150Z,7.13
2023-03-08T17:21:28.901Z,7.90
2023-03-08T17:23:55.897Z,8.00
2023-03-08T17:26:23.576Z,7.97
2023-03-08T17:28:56.833Z,9.13
2023-03-08T17:31:24.700Z,9.00
2023-03-08T17:33:51.789Z,9.77
2023-03-08T17:36:20.861Z,8.70
2023-03-08T17:38:47.710Z,9.00
2023-03-08T17:41:17.162Z,9.97
2023-03-08T17:43:44.059Z,10.13
2023-03-08T17:46:16.462Z,10.97
2023-03-08T17:48:43.517Z,11.37
2023-03-08T17:51:13.750Z,10.23
2023-03-08T17:53:41.572Z,11.30
2023-03-08T17:56:14.533Z,10.97
2023-03-08T17:58:42.661Z,10.80
2023-03-08T18:01:12.405Z,10.13
2023-03-08T18:03:41.037Z,10.63
2023-03-08T18:06:14.786Z,10.90
2023-03-08T18:08:41.587Z,10.70
2023-03-08T18:11:08.304Z,10.43
2023-03-08T18:13:35.054Z,10.60
2023-03-08T18:16:04.426Z,9.20
2023-03-08T18:18:31.712Z,9.13
2023-03-08T18:21:12.198Z,9.67
2023-03-08T18:23:39.916Z,10.27
2023-03-08T18:26:06.767Z,8.63
2023-03-08T18:28:36.094Z,8.77
2023-03-08T18:31:12.284Z,8.07
2023-03-08T18:33:39.376Z,7.03
2023-03-08T18:36:09.247Z,7.90
2023-03-08T18:38:37.480Z,7.47
2023-03-08T18:41:14.511Z,8.43
2023-03-08T18:43:41.725Z,8.00
2023-03-08T18:46:12.389Z,7.47
2023-03-08T18:48:41.118Z,6.63
2023-03-08T18:51:08.047Z,7.53
2023-03-08T18:53:34.910Z,7.50
2023-03-08T18:56:04.267Z,7.37
2023-03-08T18:58:31.924Z,7.20
2023-03-08T19:01:02.893Z,6.57
2023-03-08T19:03:31.593Z,6.63
2023-03-08T19:06:02.953Z,7.83
2023-03-08T19:08:29.737Z,6.93
2023-03-08T19:10:56.822Z,7.60
2023-03-08T19:13:23.669Z,7.03
2023-03-08T19:15:50.658Z,7.50
2023-03-08T19:18:26.295Z,7.20
2023-03-08T19:20:53.385Z,6.63
2023-03-08T19:23:20.244Z,6.70
2023-03-08T19:26:05.819Z,7.63
2023-03-08T19:28:32.637Z,7.57
2023-03-08T19:30:59.372Z,8.03
2023-03-08T19:33:30.808Z,8.17
2023-03-08T19:35:58.545Z,8.53
2023-03-08T19:38:25.799Z,7.87
2023-03-08T19:40:52.743Z,9.23
2023-03-08T19:43:19.981Z,7.57
2023-03-08T19:45:50.223Z,8.73
2023-03-08T19:48:17.056Z,8.20
2023-03-08T19:50:46.682Z,8.33
2023-03-08T19:53:13.692Z,7.70
2023-03-08T19:55:52.021Z,7.63
2023-03-08T19:58:20.187Z,6.87
2023-03-08T20:00:48.179Z,6.90
2023-03-08T20:03:17.072Z,7.53
2023-03-08T20:05:46.460Z,7.03
2023-03-08T20:08:13.561Z,6.87
2023-03-08T20:10:40.690Z,6.57
2023-03-08T20:13:07.445Z,6.70
2023-03-08T20:15:34.395Z,6.70
2023-03-08T20:18:01.243Z,6.70
2023-03-08T20:20:28.033Z,7.90
2023-03-08T20:22:54.817Z,6.83
2023-03-08T20:25:26.124Z,6.53
2023-03-08T20:27:52.889Z,6.37
2023-03-08T20:30:22.033Z,6.87
2023-03-08T20:32:53.750Z,7.10
2023-03-08T20:35:22.173Z,6.60
2023-03-08T20:37:50.687Z,9.23
2023-03-08T20:40:18.149Z,7.03
2023-03-08T20:42:45.115Z,8.27
2023-03-08T20:45:12.180Z,7.50
2023-03-08T20:47:41.512Z,7.40
2023-03-08T20:50:08.903Z,7.77
2023-03-08T20:52:35.808Z,7.17
2023-03-08T20:55:03.199Z,6.77
2023-03-08T20:57:30.235Z,7.60
2023-03-08T20:59:57.535Z,6.07
2023-03-08T21:02:24.411Z,7.43
2023-03-08T21:04:51.300Z,7.20
2023-03-08T21:07:18.678Z,7.70
2023-03-08T21:09:45.717Z,8.70
2023-03-08T21:12:12.460Z,8.67
2023-03-08T21:14:39.338Z,7.63
2023-03-08T21:17:06.131Z,7.77
2023-03-08T21:19:32.940Z,7.17
2023-03-08T21:22:00.165Z,7.53
2023-03-08T21:24:27.375Z,8.30
2023-03-08T21:26:54.401Z,7.23
2023-03-08T21:29:21.624Z,7.30
2023-03-08T21:31:50.961Z,6.93
2023-03-08T21:34:19.251Z,7.20
2023-03-08T21:36:46.114Z,7.63
2023-03-08T21:39:13.450Z,7.90
2023-03-08T21:41:45.623Z,8.00
2023-03-08T21:44:15.936Z,8.47
2023-03-08T21:46:45.472Z,8.70
2023-03-08T21:49:24.250Z,10.20
2023-03-08T21:51:52.347Z,10.20
2023-03-08T21:54:20.203Z,9.07
2023-03-08T21:56:47.598Z,11.07
2023-03-08T21:59:16.834Z,11.33
2023-03-08T22:01:48.132Z,10.57
2023-03-08T22:04:17.047Z,9.97
2023-03-08T22:06:43.992Z,10.27
2023-03-08T22:09:11.102Z,10.53
2023-03-08T22:11:39.740Z,10.70
2023-03-08T22:14:07.191Z,10.60
2023-03-08T22:16:37.824Z,11.17
2023-03-08T22:19:05.573Z,11.87
2023-03-08T22:21:32.538Z,13.43
2023-03-08T22:24:02.557Z,14.23
2023-03-08T22:26:30.685Z,13.40
2023-03-08T22:28:59.744Z,13.77
2023-03-08T22:31:29.950Z,12.13
2023-03-08T22:33:57.428Z,13.10
2023-03-08T22:36:24.934Z,11.63
2023-03-08T22:38:51.800Z,11.73
2023-03-08T22:41:22.745Z,12.03
2023-03-08T22:43:50.652Z,12.23
2023-03-08T22:46:23.739Z,11.10
2023-03-08T22:48:56.373Z,11.07
2023-03-08T22:51:24.232Z,9.13
2023-03-08T22:53:51.359Z,11.00
2023-03-08T22:56:26.537Z,12.90
2023-03-08T22:58:53.543Z,9.53
2023-03-08T23:01:22.274Z,9.93
2023-03-08T23:03:49.845Z,9.37
2023-03-08T23:06:18.337Z,8.97
2023-03-08T23:08:45.480Z,9.10
2023-03-08T23:11:13.232Z,9.47
2023-03-08T23:13:41.235Z,10.00
2023-03-08T23:16:11.107Z,9.03
2023-03-08T23:18:38.142Z,9.17
2023-03-08T23:21:07.027Z,9.93
2023-03-08T23:23:33.845Z,9.67
2023-03-08T23:26:02.801Z,9.87
2023-03-08T23:28:29.609Z,8.93
2023-03-08T23:30:56.376Z,8.90
2023-03-08T23:33:23.141Z,9.43
2023-03-08T23:35:50.364Z,8.97
2023-03-08T23:38:17.187Z,9.53
2023-03-08T23:40:43.998Z,8.13
2023-03-08T23:43:10.853Z,8.87
2023-03-08T23:45:40.394Z,9.50
2023-03-08T23:48:07.628Z,8.57
2023-03-08T23:50:34.423Z,7.97
2023-03-08T23:53:01.296Z,9.00
2023-03-08T23:55:28.122Z,9.77
2023-03-08T23:57:54.866Z,9.10
